Okanagan Landing, Canada
Current Conditions -  °F | °C
As of 2:00 PM on Friday 31 Oct 2014 (Local Time) from CYLW Reporting Station
Overcast Overcast  
Wind Chill: 50°   Ceiling: 4700
Heat Index: 50°   Visibility: 9mi
Dew Point: 48°   Wind: 2mph
Humidity: 94%   Direction: NA
Pressure: 29.67"   Gusts: NA
Location:  50.23°N, 119.36°W
Report Text: CYLW 312100Z AUTO VRB02KT 9SM FEW006 SCT032 OVC047 10/09 A2967 RMK SLP054
Loading
Personal Weather Stations






























Interactive Weather Map
Tropical Storm Tracking
New forecast layout! Learn more

10-Day Weather Forecast

Advertisements
Track Severe Weather on mobile